sensor_id;sensor_type;location;lat;lon;timestamp;P1;durP1;ratioP1;P2;durP2;ratioP2
75167;SDS011;63748;48.088;11.476;2023-04-19T00:01:18;10.10;;;5.43;;
75167;SDS011;63748;48.088;11.476;2023-04-19T00:03:44;10.68;;;5.45;;
75167;SDS011;63748;48.088;11.476;2023-04-19T00:06:10;12.52;;;5.80;;
75167;SDS011;63748;48.088;11.476;2023-04-19T00:08:39;10.07;;;5.93;;
75167;SDS011;63748;48.088;11.476;2023-04-19T00:11:05;9.27;;;5.47;;
75167;SDS011;63748;48.088;11.476;2023-04-19T00:13:31;9.30;;;5.90;;
75167;SDS011;63748;48.088;11.476;2023-04-19T00:15:57;9.57;;;5.75;;
75167;SDS011;63748;48.088;11.476;2023-04-19T00:18:24;6.55;;;4.22;;
75167;SDS011;63748;48.088;11.476;2023-04-19T00:20:50;10.65;;;6.05;;
75167;SDS011;63748;48.088;11.476;2023-04-19T00:23:16;11.63;;;5.78;;
75167;SDS011;63748;48.088;11.476;2023-04-19T00:25:42;9.98;;;5.32;;
75167;SDS011;63748;48.088;11.476;2023-04-19T00:28:08;11.50;;;6.13;;
75167;SDS011;63748;48.088;11.476;2023-04-19T00:30:34;13.27;;;6.22;;
75167;SDS011;63748;48.088;11.476;2023-04-19T00:33:00;10.60;;;5.75;;
75167;SDS011;63748;48.088;11.476;2023-04-19T00:35:26;10.88;;;5.95;;
75167;SDS011;63748;48.088;11.476;2023-04-19T00:37:52;10.05;;;5.55;;
75167;SDS011;63748;48.088;11.476;2023-04-19T00:40:18;8.25;;;5.18;;
75167;SDS011;63748;48.088;11.476;2023-04-19T00:42:44;10.82;;;5.75;;
75167;SDS011;63748;48.088;11.476;2023-04-19T00:45:10;10.20;;;6.20;;
75167;SDS011;63748;48.088;11.476;2023-04-19T00:47:37;12.07;;;6.53;;
75167;SDS011;63748;48.088;11.476;2023-04-19T00:50:03;11.35;;;6.13;;
75167;SDS011;63748;48.088;11.476;2023-04-19T00:52:30;9.52;;;6.05;;
75167;SDS011;63748;48.088;11.476;2023-04-19T00:54:57;11.15;;;7.13;;
75167;SDS011;63748;48.088;11.476;2023-04-19T00:57:24;12.75;;;6.45;;
75167;SDS011;63748;48.088;11.476;2023-04-19T00:59:50;13.65;;;6.10;;
75167;SDS011;63748;48.088;11.476;2023-04-19T01:02:16;10.57;;;6.57;;
75167;SDS011;63748;48.088;11.476;2023-04-19T01:04:43;10.73;;;6.70;;
75167;SDS011;63748;48.088;11.476;2023-04-19T01:07:09;13.02;;;6.90;;
75167;SDS011;63748;48.088;11.476;2023-04-19T01:09:39;14.55;;;6.15;;
75167;SDS011;63748;48.088;11.476;2023-04-19T01:12:05;9.45;;;6.40;;
75167;SDS011;63748;48.088;11.476;2023-04-19T01:14:32;11.63;;;5.78;;
75167;SDS011;63748;48.088;11.476;2023-04-19T01:16:58;11.43;;;6.95;;
75167;SDS011;63748;48.088;11.476;2023-04-19T01:19:24;10.00;;;6.18;;
75167;SDS011;63748;48.088;11.476;2023-04-19T01:21:50;10.48;;;6.70;;
75167;SDS011;63748;48.088;11.476;2023-04-19T01:24:17;12.05;;;6.00;;
75167;SDS011;63748;48.088;11.476;2023-04-19T01:26:43;11.20;;;6.47;;
75167;SDS011;63748;48.088;11.476;2023-04-19T01:29:09;9.85;;;6.03;;
75167;SDS011;63748;48.088;11.476;2023-04-19T01:31:35;9.75;;;6.00;;
75167;SDS011;63748;48.088;11.476;2023-04-19T01:34:01;9.32;;;6.05;;
75167;SDS011;63748;48.088;11.476;2023-04-19T01:36:27;9.15;;;6.57;;
75167;SDS011;63748;48.088;11.476;2023-04-19T01:38:54;9.45;;;6.05;;
75167;SDS011;63748;48.088;11.476;2023-04-19T01:41:20;9.95;;;6.57;;
75167;SDS011;63748;48.088;11.476;2023-04-19T01:43:50;10.95;;;6.10;;
75167;SDS011;63748;48.088;11.476;2023-04-19T01:46:16;9.90;;;6.15;;
75167;SDS011;63748;48.088;11.476;2023-04-19T01:48:42;11.70;;;6.18;;
75167;SDS011;63748;48.088;11.476;2023-04-19T01:51:09;9.02;;;5.82;;
75167;SDS011;63748;48.088;11.476;2023-04-19T01:53:35;10.80;;;5.85;;
75167;SDS011;63748;48.088;11.476;2023-04-19T01:56:01;12.38;;;6.60;;
75167;SDS011;63748;48.088;11.476;2023-04-19T01:58:27;8.93;;;5.68;;
75167;SDS011;63748;48.088;11.476;2023-04-19T02:00:53;8.98;;;6.20;;
75167;SDS011;63748;48.088;11.476;2023-04-19T02:03:19;11.85;;;6.35;;
75167;SDS011;63748;48.088;11.476;2023-04-19T02:05:45;9.95;;;5.88;;
75167;SDS011;63748;48.088;11.476;2023-04-19T02:08:11;10.35;;;6.55;;
75167;SDS011;63748;48.088;11.476;2023-04-19T02:10:37;12.05;;;6.80;;
75167;SDS011;63748;48.088;11.476;2023-04-19T02:13:03;10.95;;;6.43;;
75167;SDS011;63748;48.088;11.476;2023-04-19T02:15:29;11.50;;;6.53;;
75167;SDS011;63748;48.088;11.476;2023-04-19T02:17:55;15.15;;;7.93;;
75167;SDS011;63748;48.088;11.476;2023-04-19T02:20:21;10.70;;;6.15;;
75167;SDS011;63748;48.088;11.476;2023-04-19T02:22:48;13.50;;;7.55;;
75167;SDS011;63748;48.088;11.476;2023-04-19T02:25:14;11.30;;;7.18;;
75167;SDS011;63748;48.088;11.476;2023-04-19T02:27:40;12.60;;;6.88;;
75167;SDS011;63748;48.088;11.476;2023-04-19T02:30:06;14.57;;;7.72;;
75167;SDS011;63748;48.088;11.476;2023-04-19T02:32:33;11.48;;;7.18;;
75167;SDS011;63748;48.088;11.476;2023-04-19T02:34:59;14.30;;;8.02;;
75167;SDS011;63748;48.088;11.476;2023-04-19T02:37:25;10.10;;;7.07;;
75167;SDS011;63748;48.088;11.476;2023-04-19T02:39:51;11.05;;;7.03;;
75167;SDS011;63748;48.088;11.476;2023-04-19T02:42:17;13.63;;;6.97;;
75167;SDS011;63748;48.088;11.476;2023-04-19T02:44:43;14.57;;;8.38;;
75167;SDS011;63748;48.088;11.476;2023-04-19T02:47:09;13.63;;;7.68;;
75167;SDS011;63748;48.088;11.476;2023-04-19T02:49:35;13.23;;;7.43;;
75167;SDS011;63748;48.088;11.476;2023-04-19T02:52:05;14.18;;;9.07;;
75167;SDS011;63748;48.088;11.476;2023-04-19T02:54:31;13.43;;;7.68;;
75167;SDS011;63748;48.088;11.476;2023-04-19T02:56:58;13.48;;;7.78;;
75167;SDS011;63748;48.088;11.476;2023-04-19T02:59:24;14.82;;;8.02;;
75167;SDS011;63748;48.088;11.476;2023-04-19T03:01:50;12.75;;;7.78;;
75167;SDS011;63748;48.088;11.476;2023-04-19T03:04:16;16.58;;;8.27;;
75167;SDS011;63748;48.088;11.476;2023-04-19T03:06:42;16.40;;;8.30;;
75167;SDS011;63748;48.088;11.476;2023-04-19T03:09:09;16.77;;;8.18;;
75167;SDS011;63748;48.088;11.476;2023-04-19T03:11:35;14.15;;;7.65;;
75167;SDS011;63748;48.088;11.476;2023-04-19T03:14:02;15.93;;;8.25;;
75167;SDS011;63748;48.088;11.476;2023-04-19T03:16:28;14.07;;;7.53;;
75167;SDS011;63748;48.088;11.476;2023-04-19T03:18:54;14.80;;;8.55;;
75167;SDS011;63748;48.088;11.476;2023-04-19T03:21:20;14.57;;;8.32;;
75167;SDS011;63748;48.088;11.476;2023-04-19T03:23:51;15.95;;;8.55;;
75167;SDS011;63748;48.088;11.476;2023-04-19T03:26:17;14.30;;;7.68;;
75167;SDS011;63748;48.088;11.476;2023-04-19T03:28:43;14.48;;;8.63;;
75167;SDS011;63748;48.088;11.476;2023-04-19T03:31:09;15.07;;;8.45;;
75167;SDS011;63748;48.088;11.476;2023-04-19T03:33:35;15.35;;;7.80;;
75167;SDS011;63748;48.088;11.476;2023-04-19T03:36:01;16.38;;;8.00;;
75167;SDS011;63748;48.088;11.476;2023-04-19T03:38:27;14.77;;;8.25;;
75167;SDS011;63748;48.088;11.476;2023-04-19T03:40:53;13.60;;;7.65;;
75167;SDS011;63748;48.088;11.476;2023-04-19T03:43:21;17.02;;;8.88;;
75167;SDS011;63748;48.088;11.476;2023-04-19T03:45:48;15.27;;;8.38;;
75167;SDS011;63748;48.088;11.476;2023-04-19T03:48:14;19.10;;;9.13;;
75167;SDS011;63748;48.088;11.476;2023-04-19T03:50:40;16.27;;;9.20;;
75167;SDS011;63748;48.088;11.476;2023-04-19T03:53:06;14.00;;;8.35;;
75167;SDS011;63748;48.088;11.476;2023-04-19T03:55:32;15.90;;;8.07;;
75167;SDS011;63748;48.088;11.476;2023-04-19T03:57:58;15.88;;;8.45;;
75167;SDS011;63748;48.088;11.476;2023-04-19T04:00:25;18.35;;;9.43;;
75167;SDS011;63748;48.088;11.476;2023-04-19T04:02:51;17.27;;;9.90;;
75167;SDS011;63748;48.088;11.476;2023-04-19T04:05:17;16.15;;;8.57;;
75167;SDS011;63748;48.088;11.476;2023-04-19T04:07:43;17.90;;;9.43;;
75167;SDS011;63748;48.088;11.476;2023-04-19T04:10:10;15.93;;;9.02;;
75167;SDS011;63748;48.088;11.476;2023-04-19T04:12:36;19.08;;;9.98;;
75167;SDS011;63748;48.088;11.476;2023-04-19T04:15:02;16.40;;;10.00;;
75167;SDS011;63748;48.088;11.476;2023-04-19T04:17:29;17.15;;;10.35;;
75167;SDS011;63748;48.088;11.476;2023-04-19T04:19:55;21.15;;;11.50;;
75167;SDS011;63748;48.088;11.476;2023-04-19T04:22:21;19.15;;;10.32;;
75167;SDS011;63748;48.088;11.476;2023-04-19T04:24:47;22.15;;;11.73;;
75167;SDS011;63748;48.088;11.476;2023-04-19T04:27:13;20.02;;;10.75;;
75167;SDS011;63748;48.088;11.476;2023-04-19T04:29:44;18.55;;;10.45;;
75167;SDS011;63748;48.088;11.476;2023-04-19T04:32:10;21.52;;;12.00;;
75167;SDS011;63748;48.088;11.476;2023-04-19T04:34:38;19.92;;;9.63;;
75167;SDS011;63748;48.088;11.476;2023-04-19T04:37:05;19.92;;;9.98;;
75167;SDS011;63748;48.088;11.476;2023-04-19T04:39:32;18.17;;;10.80;;
75167;SDS011;63748;48.088;11.476;2023-04-19T04:42:03;20.98;;;10.88;;
75167;SDS011;63748;48.088;11.476;2023-04-19T04:44:32;20.42;;;12.18;;
75167;SDS011;63748;48.088;11.476;2023-04-19T04:46:58;21.15;;;11.55;;
75167;SDS011;63748;48.088;11.476;2023-04-19T04:49:24;18.05;;;10.60;;
75167;SDS011;63748;48.088;11.476;2023-04-19T04:51:50;21.73;;;11.65;;
75167;SDS011;63748;48.088;11.476;2023-04-19T04:54:16;20.05;;;11.75;;
75167;SDS011;63748;48.088;11.476;2023-04-19T04:56:42;21.25;;;10.65;;
75167;SDS011;63748;48.088;11.476;2023-04-19T04:59:08;19.88;;;11.23;;
75167;SDS011;63748;48.088;11.476;2023-04-19T05:01:35;23.27;;;11.48;;
75167;SDS011;63748;48.088;11.476;2023-04-19T05:04:01;22.42;;;11.73;;
75167;SDS011;63748;48.088;11.476;2023-04-19T05:06:27;25.25;;;14.02;;
75167;SDS011;63748;48.088;11.476;2023-04-19T05:08:53;20.48;;;12.10;;
75167;SDS011;63748;48.088;11.476;2023-04-19T05:11:19;20.45;;;11.40;;
75167;SDS011;63748;48.088;11.476;2023-04-19T05:13:45;21.98;;;11.40;;
75167;SDS011;63748;48.088;11.476;2023-04-19T05:16:12;24.10;;;12.55;;
75167;SDS011;63748;48.088;11.476;2023-04-19T05:18:38;22.30;;;11.93;;
75167;SDS011;63748;48.088;11.476;2023-04-19T05:21:04;21.63;;;12.38;;
75167;SDS011;63748;48.088;11.476;2023-04-19T05:23:32;24.13;;;12.05;;
75167;SDS011;63748;48.088;11.476;2023-04-19T05:25:58;24.35;;;12.32;;
75167;SDS011;63748;48.088;11.476;2023-04-19T05:28:24;21.92;;;12.27;;
75167;SDS011;63748;48.088;11.476;2023-04-19T05:30:50;20.73;;;11.60;;
75167;SDS011;63748;48.088;11.476;2023-04-19T05:33:16;21.30;;;12.40;;
75167;SDS011;63748;48.088;11.476;2023-04-19T05:35:42;20.15;;;11.68;;
75167;SDS011;63748;48.088;11.476;2023-04-19T05:38:08;20.73;;;12.23;;
75167;SDS011;63748;48.088;11.476;2023-04-19T05:40:34;18.98;;;11.63;;
75167;SDS011;63748;48.088;11.476;2023-04-19T05:43:01;19.73;;;11.80;;
75167;SDS011;63748;48.088;11.476;2023-04-19T05:45:27;21.95;;;11.95;;
75167;SDS011;63748;48.088;11.476;2023-04-19T05:47:53;23.17;;;11.88;;
75167;SDS011;63748;48.088;11.476;2023-04-19T05:50:19;22.52;;;11.82;;
75167;SDS011;63748;48.088;11.476;2023-04-19T05:52:45;19.70;;;11.73;;
75167;SDS011;63748;48.088;11.476;2023-04-19T05:55:11;19.40;;;11.02;;
75167;SDS011;63748;48.088;11.476;2023-04-19T05:57:37;21.10;;;12.15;;
75167;SDS011;63748;48.088;11.476;2023-04-19T06:00:03;22.67;;;12.38;;
75167;SDS011;63748;48.088;11.476;2023-04-19T06:02:30;20.83;;;11.13;;
75167;SDS011;63748;48.088;11.476;2023-04-19T06:04:56;24.30;;;12.65;;
75167;SDS011;63748;48.088;11.476;2023-04-19T06:07:22;17.45;;;10.73;;
75167;SDS011;63748;48.088;11.476;2023-04-19T06:09:48;24.42;;;12.05;;
75167;SDS011;63748;48.088;11.476;2023-04-19T06:12:14;20.88;;;11.00;;
75167;SDS011;63748;48.088;11.476;2023-04-19T06:14:40;21.52;;;11.15;;
75167;SDS011;63748;48.088;11.476;2023-04-19T06:17:06;23.02;;;11.93;;
75167;SDS011;63748;48.088;11.476;2023-04-19T06:19:32;19.23;;;9.65;;
75167;SDS011;63748;48.088;11.476;2023-04-19T06:21:59;21.77;;;11.60;;
75167;SDS011;63748;48.088;11.476;2023-04-19T06:24:25;21.65;;;11.52;;
75167;SDS011;63748;48.088;11.476;2023-04-19T06:26:51;23.38;;;12.38;;
75167;SDS011;63748;48.088;11.476;2023-04-19T06:29:17;22.55;;;12.20;;
75167;SDS011;63748;48.088;11.476;2023-04-19T06:31:45;20.55;;;10.77;;
75167;SDS011;63748;48.088;11.476;2023-04-19T06:34:11;20.15;;;10.88;;
75167;SDS011;63748;48.088;11.476;2023-04-19T06:36:38;22.13;;;11.57;;
75167;SDS011;63748;48.088;11.476;2023-04-19T06:39:04;22.75;;;11.43;;
75167;SDS011;63748;48.088;11.476;2023-04-19T06:41:30;21.27;;;11.38;;
75167;SDS011;63748;48.088;11.476;2023-04-19T06:43:56;23.40;;;13.18;;
75167;SDS011;63748;48.088;11.476;2023-04-19T06:46:22;21.70;;;11.95;;
75167;SDS011;63748;48.088;11.476;2023-04-19T06:48:48;20.77;;;12.40;;
75167;SDS011;63748;48.088;11.476;2023-04-19T06:51:14;21.25;;;11.90;;
75167;SDS011;63748;48.088;11.476;2023-04-19T06:53:40;20.25;;;11.65;;
75167;SDS011;63748;48.088;11.476;2023-04-19T06:56:08;20.55;;;11.23;;
75167;SDS011;63748;48.088;11.476;2023-04-19T06:58:34;24.52;;;11.20;;
75167;SDS011;63748;48.088;11.476;2023-04-19T07:01:01;25.60;;;11.35;;
75167;SDS011;63748;48.088;11.476;2023-04-19T07:03:28;23.10;;;12.13;;
75167;SDS011;63748;48.088;11.476;2023-04-19T07:05:54;23.58;;;12.52;;
75167;SDS011;63748;48.088;11.476;2023-04-19T07:08:21;22.50;;;12.40;;
75167;SDS011;63748;48.088;11.476;2023-04-19T07:10:47;26.58;;;12.05;;
75167;SDS011;63748;48.088;11.476;2023-04-19T07:13:13;21.35;;;11.25;;
75167;SDS011;63748;48.088;11.476;2023-04-19T07:15:40;22.10;;;11.23;;
75167;SDS011;63748;48.088;11.476;2023-04-19T07:18:06;24.83;;;12.63;;
75167;SDS011;63748;48.088;11.476;2023-04-19T07:23:00;22.15;;;11.10;;
75167;SDS011;63748;48.088;11.476;2023-04-19T07:25:26;23.77;;;11.45;;
75167;SDS011;63748;48.088;11.476;2023-04-19T07:27:52;20.65;;;11.95;;
75167;SDS011;63748;48.088;11.476;2023-04-19T07:30:19;22.13;;;11.15;;
75167;SDS011;63748;48.088;11.476;2023-04-19T07:32:45;20.90;;;10.60;;
75167;SDS011;63748;48.088;11.476;2023-04-19T07:35:11;24.70;;;11.80;;
75167;SDS011;63748;48.088;11.476;2023-04-19T07:37:37;24.27;;;11.07;;
75167;SDS011;63748;48.088;11.476;2023-04-19T07:40:03;20.85;;;11.65;;
75167;SDS011;63748;48.088;11.476;2023-04-19T07:42:30;24.60;;;12.35;;
75167;SDS011;63748;48.088;11.476;2023-04-19T07:44:56;21.90;;;11.15;;
75167;SDS011;63748;48.088;11.476;2023-04-19T07:47:23;21.75;;;12.25;;
75167;SDS011;63748;48.088;11.476;2023-04-19T07:49:53;21.55;;;11.23;;
75167;SDS011;63748;48.088;11.476;2023-04-19T07:52:20;27.70;;;12.40;;
75167;SDS011;63748;48.088;11.476;2023-04-19T07:54:46;19.90;;;11.05;;
75167;SDS011;63748;48.088;11.476;2023-04-19T07:57:12;24.67;;;12.35;;
75167;SDS011;63748;48.088;11.476;2023-04-19T07:59:38;22.02;;;10.35;;
75167;SDS011;63748;48.088;11.476;2023-04-19T08:02:04;22.80;;;11.43;;
75167;SDS011;63748;48.088;11.476;2023-04-19T08:04:31;24.33;;;11.68;;
75167;SDS011;63748;48.088;11.476;2023-04-19T08:06:57;24.08;;;11.77;;
75167;SDS011;63748;48.088;11.476;2023-04-19T08:09:23;19.05;;;10.30;;
75167;SDS011;63748;48.088;11.476;2023-04-19T08:11:49;25.23;;;13.40;;
75167;SDS011;63748;48.088;11.476;2023-04-19T08:14:17;23.27;;;11.95;;
75167;SDS011;63748;48.088;11.476;2023-04-19T08:16:43;24.70;;;12.55;;
75167;SDS011;63748;48.088;11.476;2023-04-19T08:19:09;25.15;;;11.85;;
75167;SDS011;63748;48.088;11.476;2023-04-19T08:21:35;21.20;;;11.60;;
75167;SDS011;63748;48.088;11.476;2023-04-19T08:24:01;22.20;;;11.93;;
75167;SDS011;63748;48.088;11.476;2023-04-19T08:26:27;20.27;;;11.70;;
75167;SDS011;63748;48.088;11.476;2023-04-19T08:28:54;24.05;;;12.10;;
75167;SDS011;63748;48.088;11.476;2023-04-19T08:31:20;24.55;;;10.55;;
75167;SDS011;63748;48.088;11.476;2023-04-19T08:33:46;25.10;;;12.77;;
75167;SDS011;63748;48.088;11.476;2023-04-19T08:36:12;20.45;;;11.30;;
75167;SDS011;63748;48.088;11.476;2023-04-19T08:38:38;24.73;;;12.07;;
75167;SDS011;63748;48.088;11.476;2023-04-19T08:41:05;22.75;;;11.77;;
75167;SDS011;63748;48.088;11.476;2023-04-19T08:43:32;22.83;;;11.60;;
75167;SDS011;63748;48.088;11.476;2023-04-19T08:46:00;22.45;;;11.85;;
75167;SDS011;63748;48.088;11.476;2023-04-19T08:48:28;21.48;;;11.05;;
75167;SDS011;63748;48.088;11.476;2023-04-19T08:50:55;21.88;;;12.07;;
75167;SDS011;63748;48.088;11.476;2023-04-19T08:55:48;24.13;;;12.13;;
75167;SDS011;63748;48.088;11.476;2023-04-19T08:58:15;19.25;;;10.95;;
75167;SDS011;63748;48.088;11.476;2023-04-19T09:00:41;22.40;;;12.43;;
75167;SDS011;63748;48.088;11.476;2023-04-19T09:03:07;22.85;;;12.68;;
75167;SDS011;63748;48.088;11.476;2023-04-19T09:05:33;23.98;;;11.93;;
75167;SDS011;63748;48.088;11.476;2023-04-19T09:10:54;21.17;;;11.88;;
75167;SDS011;63748;48.088;11.476;2023-04-19T09:13:20;22.23;;;11.90;;
75167;SDS011;63748;48.088;11.476;2023-04-19T09:15:46;22.13;;;11.60;;
75167;SDS011;63748;48.088;11.476;2023-04-19T09:18:12;23.77;;;11.82;;
75167;SDS011;63748;48.088;11.476;2023-04-19T09:20:39;17.02;;;10.90;;
75167;SDS011;63748;48.088;11.476;2023-04-19T09:23:06;23.23;;;11.40;;
75167;SDS011;63748;48.088;11.476;2023-04-19T09:25:33;21.90;;;12.05;;
75167;SDS011;63748;48.088;11.476;2023-04-19T09:28:12;17.42;;;9.77;;
75167;SDS011;63748;48.088;11.476;2023-04-19T09:30:38;20.60;;;10.98;;
75167;SDS011;63748;48.088;11.476;2023-04-19T09:33:05;16.33;;;9.98;;
75167;SDS011;63748;48.088;11.476;2023-04-19T09:35:49;18.05;;;10.02;;
75167;SDS011;63748;48.088;11.476;2023-04-19T09:38:15;19.42;;;11.25;;
75167;SDS011;63748;48.088;11.476;2023-04-19T09:40:42;19.90;;;10.45;;
75167;SDS011;63748;48.088;11.476;2023-04-19T09:43:08;20.85;;;12.70;;
75167;SDS011;63748;48.088;11.476;2023-04-19T09:45:52;19.00;;;11.95;;
75167;SDS011;63748;48.088;11.476;2023-04-19T09:48:19;19.55;;;11.18;;
75167;SDS011;63748;48.088;11.476;2023-04-19T09:50:57;21.88;;;11.00;;
75167;SDS011;63748;48.088;11.476;2023-04-19T09:53:24;19.65;;;10.15;;
75167;SDS011;63748;48.088;11.476;2023-04-19T09:55:51;20.58;;;11.05;;
75167;SDS011;63748;48.088;11.476;2023-04-19T09:58:17;23.77;;;11.50;;
75167;SDS011;63748;48.088;11.476;2023-04-19T10:00:44;23.25;;;11.40;;
75167;SDS011;63748;48.088;11.476;2023-04-19T10:03:15;26.35;;;11.00;;
75167;SDS011;63748;48.088;11.476;2023-04-19T10:05:41;23.35;;;11.95;;
75167;SDS011;63748;48.088;11.476;2023-04-19T10:08:08;16.02;;;8.75;;
75167;SDS011;63748;48.088;11.476;2023-04-19T10:10:34;20.63;;;10.55;;
75167;SDS011;63748;48.088;11.476;2023-04-19T10:13:02;22.20;;;10.25;;
75167;SDS011;63748;48.088;11.476;2023-04-19T10:15:29;21.98;;;10.60;;
75167;SDS011;63748;48.088;11.476;2023-04-19T10:17:55;22.35;;;11.77;;
75167;SDS011;63748;48.088;11.476;2023-04-19T10:20:26;20.13;;;11.18;;
75167;SDS011;63748;48.088;11.476;2023-04-19T10:22:55;21.45;;;10.73;;
75167;SDS011;63748;48.088;11.476;2023-04-19T10:25:26;18.85;;;9.85;;
75167;SDS011;63748;48.088;11.476;2023-04-19T10:27:53;17.77;;;10.00;;
75167;SDS011;63748;48.088;11.476;2023-04-19T10:30:20;17.35;;;10.68;;
75167;SDS011;63748;48.088;11.476;2023-04-19T10:32:56;23.35;;;13.50;;
75167;SDS011;63748;48.088;11.476;2023-04-19T10:35:38;19.42;;;10.40;;
75167;SDS011;63748;48.088;11.476;2023-04-19T10:43:23;16.95;;;10.13;;
75167;SDS011;63748;48.088;11.476;2023-04-19T10:45:50;17.52;;;9.98;;
75167;SDS011;63748;48.088;11.476;2023-04-19T10:51:04;15.80;;;8.77;;
75167;SDS011;63748;48.088;11.476;2023-04-19T10:53:44;18.42;;;9.50;;
75167;SDS011;63748;48.088;11.476;2023-04-19T10:56:11;18.40;;;10.38;;
75167;SDS011;63748;48.088;11.476;2023-04-19T11:01:34;17.33;;;9.88;;
75167;SDS011;63748;48.088;11.476;2023-04-19T11:04:07;15.27;;;9.63;;
75167;SDS011;63748;48.088;11.476;2023-04-19T11:06:34;18.25;;;10.25;;
75167;SDS011;63748;48.088;11.476;2023-04-19T11:09:00;15.88;;;9.07;;
75167;SDS011;63748;48.088;11.476;2023-04-19T11:11:31;18.27;;;8.73;;
75167;SDS011;63748;48.088;11.476;2023-04-19T11:13:59;16.60;;;8.35;;
75167;SDS011;63748;48.088;11.476;2023-04-19T11:16:26;15.27;;;8.82;;
75167;SDS011;63748;48.088;11.476;2023-04-19T11:18:52;14.90;;;9.18;;
75167;SDS011;63748;48.088;11.476;2023-04-19T11:21:20;16.10;;;9.10;;
75167;SDS011;63748;48.088;11.476;2023-04-19T11:23:46;17.48;;;9.98;;
75167;SDS011;63748;48.088;11.476;2023-04-19T11:26:14;16.42;;;9.60;;
75167;SDS011;63748;48.088;11.476;2023-04-19T11:28:40;16.60;;;7.85;;
75167;SDS011;63748;48.088;11.476;2023-04-19T11:31:06;17.67;;;9.52;;
75167;SDS011;63748;48.088;11.476;2023-04-19T11:33:35;16.60;;;8.50;;
75167;SDS011;63748;48.088;11.476;2023-04-19T11:36:02;18.60;;;9.07;;
75167;SDS011;63748;48.088;11.476;2023-04-19T11:38:31;16.55;;;9.48;;
75167;SDS011;63748;48.088;11.476;2023-04-19T11:41:00;18.35;;;10.88;;
75167;SDS011;63748;48.088;11.476;2023-04-19T11:43:36;18.38;;;9.98;;
75167;SDS011;63748;48.088;11.476;2023-04-19T11:46:09;20.10;;;10.65;;
75167;SDS011;63748;48.088;11.476;2023-04-19T11:48:36;17.77;;;10.88;;
75167;SDS011;63748;48.088;11.476;2023-04-19T11:51:02;19.73;;;10.80;;
75167;SDS011;63748;48.088;11.476;2023-04-19T11:53:29;19.45;;;9.85;;
75167;SDS011;63748;48.088;11.476;2023-04-19T11:56:05;20.98;;;10.93;;
75167;SDS011;63748;48.088;11.476;2023-04-19T12:01:06;23.17;;;11.70;;
75167;SDS011;63748;48.088;11.476;2023-04-19T12:03:33;20.80;;;11.30;;
75167;SDS011;63748;48.088;11.476;2023-04-19T12:06:00;15.95;;;10.25;;
75167;SDS011;63748;48.088;11.476;2023-04-19T12:08:37;17.00;;;9.60;;
75167;SDS011;63748;48.088;11.476;2023-04-19T12:11:04;13.23;;;8.77;;
75167;SDS011;63748;48.088;11.476;2023-04-19T12:13:31;13.93;;;8.13;;
75167;SDS011;63748;48.088;11.476;2023-04-19T12:15:57;16.58;;;9.32;;
75167;SDS011;63748;48.088;11.476;2023-04-19T12:18:23;19.05;;;10.25;;
75167;SDS011;63748;48.088;11.476;2023-04-19T12:20:50;18.13;;;10.05;;
75167;SDS011;63748;48.088;11.476;2023-04-19T12:23:17;20.33;;;10.35;;
75167;SDS011;63748;48.088;11.476;2023-04-19T12:25:44;21.33;;;10.80;;
75167;SDS011;63748;48.088;11.476;2023-04-19T12:28:11;21.38;;;11.07;;
75167;SDS011;63748;48.088;11.476;2023-04-19T12:30:38;21.10;;;10.45;;
75167;SDS011;63748;48.088;11.476;2023-04-19T12:33:07;20.33;;;11.45;;
75167;SDS011;63748;48.088;11.476;2023-04-19T12:35:33;20.42;;;9.65;;
75167;SDS011;63748;48.088;11.476;2023-04-19T12:38:00;21.50;;;11.07;;
75167;SDS011;63748;48.088;11.476;2023-04-19T12:40:28;16.27;;;9.35;;
75167;SDS011;63748;48.088;11.476;2023-04-19T12:42:54;14.90;;;8.93;;
75167;SDS011;63748;48.088;11.476;2023-04-19T12:45:20;19.65;;;10.23;;
75167;SDS011;63748;48.088;11.476;2023-04-19T12:47:46;19.42;;;10.32;;
75167;SDS011;63748;48.088;11.476;2023-04-19T12:50:13;17.60;;;9.68;;
75167;SDS011;63748;48.088;11.476;2023-04-19T12:52:40;14.30;;;8.30;;
75167;SDS011;63748;48.088;11.476;2023-04-19T12:55:07;18.58;;;10.20;;
75167;SDS011;63748;48.088;11.476;2023-04-19T12:57:33;17.40;;;10.82;;
75167;SDS011;63748;48.088;11.476;2023-04-19T13:00:00;18.92;;;9.38;;
75167;SDS011;63748;48.088;11.476;2023-04-19T13:02:26;18.20;;;10.18;;
75167;SDS011;63748;48.088;11.476;2023-04-19T13:04:52;16.73;;;9.75;;
75167;SDS011;63748;48.088;11.476;2023-04-19T13:07:18;18.10;;;10.20;;
75167;SDS011;63748;48.088;11.476;2023-04-19T13:09:44;17.10;;;8.75;;
75167;SDS011;63748;48.088;11.476;2023-04-19T13:12:10;18.25;;;8.95;;
75167;SDS011;63748;48.088;11.476;2023-04-19T13:14:36;17.13;;;10.05;;
75167;SDS011;63748;48.088;11.476;2023-04-19T13:17:02;18.05;;;10.50;;
75167;SDS011;63748;48.088;11.476;2023-04-19T13:19:28;19.40;;;10.73;;
75167;SDS011;63748;48.088;11.476;2023-04-19T13:21:55;19.55;;;10.93;;
75167;SDS011;63748;48.088;11.476;2023-04-19T13:24:21;16.45;;;10.73;;
75167;SDS011;63748;48.088;11.476;2023-04-19T13:26:47;22.13;;;10.60;;
75167;SDS011;63748;48.088;11.476;2023-04-19T13:29:13;18.77;;;9.68;;
75167;SDS011;63748;48.088;11.476;2023-04-19T13:31:39;17.63;;;10.15;;
75167;SDS011;63748;48.088;11.476;2023-04-19T13:34:07;18.70;;;9.93;;
75167;SDS011;63748;48.088;11.476;2023-04-19T13:36:33;18.08;;;11.18;;
75167;SDS011;63748;48.088;11.476;2023-04-19T13:38:59;16.67;;;10.32;;
75167;SDS011;63748;48.088;11.476;2023-04-19T13:41:25;15.50;;;9.15;;
75167;SDS011;63748;48.088;11.476;2023-04-19T13:43:51;17.23;;;10.35;;
75167;SDS011;63748;48.088;11.476;2023-04-19T13:46:17;10.82;;;6.72;;
75167;SDS011;63748;48.088;11.476;2023-04-19T13:48:43;15.27;;;7.03;;
75167;SDS011;63748;48.088;11.476;2023-04-19T13:51:09;11.20;;;6.65;;
75167;SDS011;63748;48.088;11.476;2023-04-19T13:53:35;14.50;;;7.50;;
75167;SDS011;63748;48.088;11.476;2023-04-19T13:56:01;14.80;;;6.63;;
75167;SDS011;63748;48.088;11.476;2023-04-19T13:58:28;10.88;;;7.07;;
75167;SDS011;63748;48.088;11.476;2023-04-19T14:00:54;15.40;;;7.20;;
75167;SDS011;63748;48.088;11.476;2023-04-19T14:03:20;14.80;;;8.38;;
75167;SDS011;63748;48.088;11.476;2023-04-19T14:05:46;13.70;;;7.40;;
75167;SDS011;63748;48.088;11.476;2023-04-19T14:08:12;13.27;;;7.22;;
75167;SDS011;63748;48.088;11.476;2023-04-19T14:10:38;13.57;;;7.20;;
75167;SDS011;63748;48.088;11.476;2023-04-19T14:13:05;14.15;;;6.90;;
75167;SDS011;63748;48.088;11.476;2023-04-19T14:15:31;10.60;;;6.05;;
75167;SDS011;63748;48.088;11.476;2023-04-19T14:17:57;12.20;;;5.40;;
75167;SDS011;63748;48.088;11.476;2023-04-19T14:20:23;10.73;;;5.53;;
75167;SDS011;63748;48.088;11.476;2023-04-19T14:22:49;9.90;;;5.63;;
75167;SDS011;63748;48.088;11.476;2023-04-19T14:25:16;10.25;;;4.47;;
75167;SDS011;63748;48.088;11.476;2023-04-19T14:27:42;6.47;;;3.10;;
75167;SDS011;63748;48.088;11.476;2023-04-19T14:30:08;5.22;;;2.50;;
75167;SDS011;63748;48.088;11.476;2023-04-19T14:32:35;3.72;;;2.28;;
75167;SDS011;63748;48.088;11.476;2023-04-19T14:35:02;2.85;;;1.55;;